sensor_id;sensor_type;location;lat;lon;timestamp;pressure;altitude;pressure_sealevel;temperature;humidity
50734;BME280;36701;51.798;19.474;2022-10-16T00:01:23;98883.38;;;16.14;100.00
50734;BME280;36701;51.798;19.474;2022-10-16T00:03:50;98837.13;;;16.19;100.00
50734;BME280;36701;51.798;19.474;2022-10-16T00:06:19;98858.63;;;16.40;100.00
50734;BME280;36701;51.798;19.474;2022-10-16T00:08:46;98845.31;;;15.95;100.00
50734;BME280;36701;51.798;19.474;2022-10-16T00:11:22;98872.09;;;16.07;100.00
50734;BME280;36701;51.798;19.474;2022-10-16T00:13:49;98891.44;;;16.24;100.00
50734;BME280;36701;51.798;19.474;2022-10-16T00:16:16;98897.22;;;16.37;100.00
50734;BME280;36701;51.798;19.474;2022-10-16T00:18:43;98895.37;;;16.56;100.00
50734;BME280;36701;51.798;19.474;2022-10-16T00:21:17;98896.97;;;16.57;100.00
50734;BME280;36701;51.798;19.474;2022-10-16T00:23:45;98856.22;;;16.14;100.00
50734;BME280;36701;51.798;19.474;2022-10-16T00:26:14;98844.19;;;16.20;100.00
50734;BME280;36701;51.798;19.474;2022-10-16T00:28:41;98889.44;;;16.30;100.00
50734;BME280;36701;51.798;19.474;2022-10-16T00:31:10;98836.25;;;16.05;100.00
50734;BME280;36701;51.798;19.474;2022-10-16T00:33:38;98844.66;;;16.03;100.00
50734;BME280;36701;51.798;19.474;2022-10-16T00:36:07;98841.69;;;16.24;100.00
50734;BME280;36701;51.798;19.474;2022-10-16T00:38:34;98855.38;;;15.94;100.00
50734;BME280;36701;51.798;19.474;2022-10-16T00:41:01;98844.69;;;15.79;100.00
50734;BME280;36701;51.798;19.474;2022-10-16T00:43:40;98849.84;;;15.75;100.00
50734;BME280;36701;51.798;19.474;2022-10-16T00:51:40;98897.13;;;15.98;100.00
50734;BME280;36701;51.798;19.474;2022-10-16T00:54:26;98858.63;;;15.67;100.00
50734;BME280;36701;51.798;19.474;2022-10-16T00:56:54;98852.75;;;15.84;100.00
50734;BME280;36701;51.798;19.474;2022-10-16T00:59:24;98846.34;;;15.46;100.00
50734;BME280;36701;51.798;19.474;2022-10-16T01:01:52;98905.06;;;15.66;100.00
50734;BME280;36701;51.798;19.474;2022-10-16T01:04:21;98888.13;;;15.79;100.00
50734;BME280;36701;51.798;19.474;2022-10-16T01:07:06;98858.97;;;15.60;100.00
50734;BME280;36701;51.798;19.474;2022-10-16T01:12:32;98905.13;;;15.55;100.00
50734;BME280;36701;51.798;19.474;2022-10-16T01:15:22;98870.03;;;15.40;100.00
50734;BME280;36701;51.798;19.474;2022-10-16T01:20:35;98910.06;;;15.83;100.00
50734;BME280;36701;51.798;19.474;2022-10-16T01:23:14;98906.28;;;15.49;100.00
50734;BME280;36701;51.798;19.474;2022-10-16T01:28:50;98902.81;;;15.78;100.00
50734;BME280;36701;51.798;19.474;2022-10-16T01:31:20;98896.47;;;15.53;100.00
50734;BME280;36701;51.798;19.474;2022-10-16T01:33:56;98898.22;;;15.39;100.00
50734;BME280;36701;51.798;19.474;2022-10-16T01:36:31;98900.56;;;15.21;100.00
50734;BME280;36701;51.798;19.474;2022-10-16T01:39:01;98860.72;;;14.82;100.00
50734;BME280;36701;51.798;19.474;2022-10-16T01:41:34;98907.59;;;15.22;100.00
50734;BME280;36701;51.798;19.474;2022-10-16T01:44:07;98891.62;;;15.21;100.00
50734;BME280;36701;51.798;19.474;2022-10-16T01:46:39;98913.31;;;15.50;100.00
50734;BME280;36701;51.798;19.474;2022-10-16T01:49:06;98866.53;;;15.05;100.00
50734;BME280;36701;51.798;19.474;2022-10-16T01:51:36;98876.00;;;14.68;100.00
50734;BME280;36701;51.798;19.474;2022-10-16T01:54:06;98903.87;;;15.13;100.00
50734;BME280;36701;51.798;19.474;2022-10-16T01:56:34;98857.31;;;14.56;100.00
50734;BME280;36701;51.798;19.474;2022-10-16T01:59:06;98885.69;;;14.74;100.00
50734;BME280;36701;51.798;19.474;2022-10-16T02:01:35;98925.47;;;15.23;100.00
50734;BME280;36701;51.798;19.474;2022-10-16T02:06:47;98880.25;;;14.74;100.00
50734;BME280;36701;51.798;19.474;2022-10-16T02:09:13;98932.75;;;15.28;100.00
50734;BME280;36701;51.798;19.474;2022-10-16T02:11:43;98925.47;;;15.23;100.00
50734;BME280;36701;51.798;19.474;2022-10-16T02:14:10;98879.91;;;14.91;100.00
50734;BME280;36701;51.798;19.474;2022-10-16T02:16:40;98929.22;;;15.33;100.00
50734;BME280;36701;51.798;19.474;2022-10-16T02:19:13;98894.41;;;14.66;100.00
50734;BME280;36701;51.798;19.474;2022-10-16T02:21:43;98895.16;;;15.16;100.00
50734;BME280;36701;51.798;19.474;2022-10-16T02:27:09;98928.00;;;14.70;100.00
50734;BME280;36701;51.798;19.474;2022-10-16T02:29:49;98933.09;;;15.21;100.00
50734;BME280;36701;51.798;19.474;2022-10-16T02:32:20;98940.38;;;15.26;100.00
50734;BME280;36701;51.798;19.474;2022-10-16T02:34:48;98905.00;;;15.07;100.00
50734;BME280;36701;51.798;19.474;2022-10-16T02:37:16;98946.12;;;14.75;100.00
50734;BME280;36701;51.798;19.474;2022-10-16T02:39:44;98938.38;;;15.42;100.00
50734;BME280;36701;51.798;19.474;2022-10-16T02:42:14;98922.34;;;15.06;100.00
50734;BME280;36701;51.798;19.474;2022-10-16T02:44:41;98940.06;;;15.33;100.00
50734;BME280;36701;51.798;19.474;2022-10-16T02:47:14;98956.47;;;15.12;100.00
50734;BME280;36701;51.798;19.474;2022-10-16T02:49:40;98925.22;;;14.85;100.00
50734;BME280;36701;51.798;19.474;2022-10-16T02:52:07;98950.06;;;14.98;100.00
50734;BME280;36701;51.798;19.474;2022-10-16T02:54:33;98955.66;;;14.67;100.00
50734;BME280;36701;51.798;19.474;2022-10-16T02:57:01;98945.16;;;15.05;100.00
50734;BME280;36701;51.798;19.474;2022-10-16T02:59:27;98908.34;;;14.94;100.00
50734;BME280;36701;51.798;19.474;2022-10-16T03:01:53;98911.78;;;14.60;100.00
50734;BME280;36701;51.798;19.474;2022-10-16T03:04:20;98912.78;;;14.74;100.00
50734;BME280;36701;51.798;19.474;2022-10-16T03:06:46;98914.00;;;14.47;100.00
50734;BME280;36701;51.798;19.474;2022-10-16T03:09:12;98950.72;;;14.74;100.00
50734;BME280;36701;51.798;19.474;2022-10-16T03:11:39;98949.72;;;14.54;100.00
50734;BME280;36701;51.798;19.474;2022-10-16T03:14:05;98918.94;;;14.30;100.00
50734;BME280;36701;51.798;19.474;2022-10-16T03:16:32;98972.56;;;14.33;100.00
50734;BME280;36701;51.798;19.474;2022-10-16T03:18:58;98952.34;;;14.75;100.00
50734;BME280;36701;51.798;19.474;2022-10-16T03:21:25;98934.19;;;14.81;100.00
50734;BME280;36701;51.798;19.474;2022-10-16T03:23:51;98980.31;;;15.15;100.00
50734;BME280;36701;51.798;19.474;2022-10-16T03:26:17;98976.25;;;14.58;100.00
50734;BME280;36701;51.798;19.474;2022-10-16T03:28:44;98971.56;;;14.79;100.00
50734;BME280;36701;51.798;19.474;2022-10-16T03:31:10;98967.00;;;14.74;100.00
50734;BME280;36701;51.798;19.474;2022-10-16T03:33:36;98977.91;;;14.48;100.00
50734;BME280;36701;51.798;19.474;2022-10-16T03:36:03;98926.44;;;14.53;100.00
50734;BME280;36701;51.798;19.474;2022-10-16T03:38:36;98967.16;;;14.98;100.00
50734;BME280;36701;51.798;19.474;2022-10-16T03:41:02;98915.25;;;14.70;100.00
50734;BME280;36701;51.798;19.474;2022-10-16T03:43:29;98934.87;;;15.02;100.00
50734;BME280;36701;51.798;19.474;2022-10-16T03:45:56;98977.25;;;14.87;100.00
50734;BME280;36701;51.798;19.474;2022-10-16T03:48:22;98988.63;;;14.84;100.00
50734;BME280;36701;51.798;19.474;2022-10-16T03:50:49;98928.19;;;14.19;100.00
50734;BME280;36701;51.798;19.474;2022-10-16T03:53:16;98983.84;;;14.61;100.00
50734;BME280;36701;51.798;19.474;2022-10-16T03:55:43;98943.19;;;14.71;100.00
50734;BME280;36701;51.798;19.474;2022-10-16T03:58:11;98974.00;;;14.85;100.00
50734;BME280;36701;51.798;19.474;2022-10-16T04:00:41;98977.72;;;14.95;100.00
50734;BME280;36701;51.798;19.474;2022-10-16T04:03:08;98961.09;;;14.62;100.00
50734;BME280;36701;51.798;19.474;2022-10-16T04:05:35;98962.03;;;14.92;100.00
50734;BME280;36701;51.798;19.474;2022-10-16T04:08:01;98887.63;;;14.03;100.00
50734;BME280;36701;51.798;19.474;2022-10-16T04:10:28;98976.69;;;14.91;100.00
50734;BME280;36701;51.798;19.474;2022-10-16T04:12:54;98964.34;;;14.59;100.00
50734;BME280;36701;51.798;19.474;2022-10-16T04:15:23;98965.56;;;14.87;100.00
50734;BME280;36701;51.798;19.474;2022-10-16T04:17:50;98947.47;;;14.77;100.00
50734;BME280;36701;51.798;19.474;2022-10-16T04:20:16;98982.69;;;14.77;100.00
50734;BME280;36701;51.798;19.474;2022-10-16T04:22:43;98975.16;;;14.69;100.00
50734;BME280;36701;51.798;19.474;2022-10-16T04:25:10;98991.41;;;14.69;100.00
50734;BME280;36701;51.798;19.474;2022-10-16T04:27:38;98993.41;;;15.08;100.00
50734;BME280;36701;51.798;19.474;2022-10-16T04:30:05;98961.47;;;14.95;100.00
50734;BME280;36701;51.798;19.474;2022-10-16T04:32:31;98990.69;;;15.08;100.00
50734;BME280;36701;51.798;19.474;2022-10-16T04:34:58;98993.28;;;15.29;100.00
50734;BME280;36701;51.798;19.474;2022-10-16T04:37:25;98976.56;;;15.11;100.00
50734;BME280;36701;51.798;19.474;2022-10-16T04:39:53;99000.94;;;15.16;100.00
50734;BME280;36701;51.798;19.474;2022-10-16T04:42:20;98959.31;;;14.97;100.00
50734;BME280;36701;51.798;19.474;2022-10-16T04:44:46;99010.78;;;15.02;100.00
50734;BME280;36701;51.798;19.474;2022-10-16T04:47:13;99016.78;;;14.88;100.00
50734;BME280;36701;51.798;19.474;2022-10-16T04:49:40;98971.34;;;14.70;100.00
50734;BME280;36701;51.798;19.474;2022-10-16T04:52:06;98955.13;;;14.60;100.00
50734;BME280;36701;51.798;19.474;2022-10-16T04:54:33;98961.22;;;14.91;100.00
50734;BME280;36701;51.798;19.474;2022-10-16T04:56:59;98987.59;;;14.75;100.00
50734;BME280;36701;51.798;19.474;2022-10-16T04:59:25;98977.97;;;14.38;100.00
50734;BME280;36701;51.798;19.474;2022-10-16T05:01:52;99006.16;;;15.02;100.00
50734;BME280;36701;51.798;19.474;2022-10-16T05:04:18;98968.50;;;14.96;100.00
50734;BME280;36701;51.798;19.474;2022-10-16T05:06:44;98944.06;;;15.01;100.00
50734;BME280;36701;51.798;19.474;2022-10-16T05:09:11;98967.19;;;15.33;100.00
50734;BME280;36701;51.798;19.474;2022-10-16T05:11:37;99001.50;;;15.13;100.00
50734;BME280;36701;51.798;19.474;2022-10-16T05:14:03;99009.66;;;15.08;100.00
50734;BME280;36701;51.798;19.474;2022-10-16T05:16:36;98983.41;;;15.43;100.00
50734;BME280;36701;51.798;19.474;2022-10-16T05:19:03;98959.81;;;14.99;100.00
50734;BME280;36701;51.798;19.474;2022-10-16T05:21:29;98962.53;;;14.99;100.00
50734;BME280;36701;51.798;19.474;2022-10-16T05:23:56;98996.97;;;15.38;100.00
50734;BME280;36701;51.798;19.474;2022-10-16T05:26:22;98930.56;;;14.96;100.00
50734;BME280;36701;51.798;19.474;2022-10-16T05:28:49;99006.47;;;15.40;100.00
50734;BME280;36701;51.798;19.474;2022-10-16T05:31:16;98938.22;;;14.83;100.00
50734;BME280;36701;51.798;19.474;2022-10-16T05:33:43;98977.56;;;14.81;100.00
50734;BME280;36701;51.798;19.474;2022-10-16T05:36:10;98987.81;;;15.34;100.00
50734;BME280;36701;51.798;19.474;2022-10-16T05:38:37;99003.81;;;15.35;100.00
50734;BME280;36701;51.798;19.474;2022-10-16T05:41:05;99014.81;;;15.49;100.00
50734;BME280;36701;51.798;19.474;2022-10-16T05:43:35;98968.31;;;15.26;100.00
50734;BME280;36701;51.798;19.474;2022-10-16T05:46:05;98991.91;;;15.66;100.00
50734;BME280;36701;51.798;19.474;2022-10-16T05:48:40;98998.69;;;15.29;100.00
50734;BME280;36701;51.798;19.474;2022-10-16T05:51:10;98992.31;;;15.04;100.00
50734;BME280;36701;51.798;19.474;2022-10-16T05:53:38;99019.94;;;15.56;100.00
50734;BME280;36701;51.798;19.474;2022-10-16T05:56:06;99025.75;;;15.39;100.00
50734;BME280;36701;51.798;19.474;2022-10-16T05:58:37;99033.22;;;15.57;100.00
50734;BME280;36701;51.798;19.474;2022-10-16T06:01:07;99029.09;;;16.00;100.00
50734;BME280;36701;51.798;19.474;2022-10-16T06:03:35;98996.47;;;15.36;100.00
50734;BME280;36701;51.798;19.474;2022-10-16T06:06:19;98971.22;;;14.96;100.00
50734;BME280;36701;51.798;19.474;2022-10-16T06:08:47;98985.69;;;15.20;100.00
50734;BME280;36701;51.798;19.474;2022-10-16T06:11:17;99040.25;;;15.58;100.00
50734;BME280;36701;51.798;19.474;2022-10-16T06:13:43;99005.59;;;15.50;100.00
50734;BME280;36701;51.798;19.474;2022-10-16T06:16:12;99051.06;;;15.69;100.00
50734;BME280;36701;51.798;19.474;2022-10-16T06:18:39;99026.03;;;15.77;100.00
50734;BME280;36701;51.798;19.474;2022-10-16T06:21:16;99052.56;;;16.20;100.00
50734;BME280;36701;51.798;19.474;2022-10-16T06:23:43;99056.41;;;15.79;100.00
50734;BME280;36701;51.798;19.474;2022-10-16T06:26:12;99055.31;;;15.40;100.00
50734;BME280;36701;51.798;19.474;2022-10-16T06:28:39;99065.81;;;15.52;100.00
50734;BME280;36701;51.798;19.474;2022-10-16T06:31:08;99049.06;;;15.40;100.00
50734;BME280;36701;51.798;19.474;2022-10-16T06:33:35;99077.94;;;16.05;100.00
50734;BME280;36701;51.798;19.474;2022-10-16T06:38:35;99076.47;;;16.47;100.00
50734;BME280;36701;51.798;19.474;2022-10-16T06:41:02;99050.50;;;16.06;100.00
50734;BME280;36701;51.798;19.474;2022-10-16T06:43:29;99091.16;;;16.70;100.00
50734;BME280;36701;51.798;19.474;2022-10-16T06:45:59;99084.16;;;16.93;100.00
50734;BME280;36701;51.798;19.474;2022-10-16T06:48:26;99085.00;;;16.64;100.00
50734;BME280;36701;51.798;19.474;2022-10-16T06:50:57;99077.19;;;16.28;100.00
50734;BME280;36701;51.798;19.474;2022-10-16T06:53:24;99073.28;;;16.93;100.00
50734;BME280;36701;51.798;19.474;2022-10-16T06:55:51;99084.81;;;17.28;100.00
50734;BME280;36701;51.798;19.474;2022-10-16T06:58:18;99098.94;;;16.82;100.00
50734;BME280;36701;51.798;19.474;2022-10-16T07:00:45;99104.09;;;16.54;100.00
50734;BME280;36701;51.798;19.474;2022-10-16T07:03:12;99100.66;;;16.73;100.00
50734;BME280;36701;51.798;19.474;2022-10-16T07:05:39;99076.59;;;16.61;100.00
50734;BME280;36701;51.798;19.474;2022-10-16T07:08:06;99112.31;;;16.49;100.00
50734;BME280;36701;51.798;19.474;2022-10-16T07:10:33;99120.34;;;16.64;100.00
50734;BME280;36701;51.798;19.474;2022-10-16T07:13:00;99130.41;;;16.88;100.00
50734;BME280;36701;51.798;19.474;2022-10-16T07:15:27;99120.34;;;16.59;100.00
50734;BME280;36701;51.798;19.474;2022-10-16T07:17:54;99107.38;;;16.56;100.00
50734;BME280;36701;51.798;19.474;2022-10-16T07:20:20;99123.03;;;16.94;100.00
50734;BME280;36701;51.798;19.474;2022-10-16T07:22:48;99103.97;;;16.69;100.00
50734;BME280;36701;51.798;19.474;2022-10-16T07:25:14;99098.47;;;16.75;100.00
50734;BME280;36701;51.798;19.474;2022-10-16T07:27:40;99080.91;;;16.91;100.00
50734;BME280;36701;51.798;19.474;2022-10-16T07:30:07;99049.38;;;16.37;100.00
50734;BME280;36701;51.798;19.474;2022-10-16T07:32:34;99058.75;;;16.55;100.00
50734;BME280;36701;51.798;19.474;2022-10-16T07:35:00;99099.00;;;16.47;100.00
50734;BME280;36701;51.798;19.474;2022-10-16T07:37:27;99085.94;;;16.74;100.00
50734;BME280;36701;51.798;19.474;2022-10-16T07:39:54;98959.22;;;16.34;100.00
50734;BME280;36701;51.798;19.474;2022-10-16T07:42:20;99084.59;;;17.00;100.00
50734;BME280;36701;51.798;19.474;2022-10-16T07:44:47;99052.94;;;17.10;100.00
50734;BME280;36701;51.798;19.474;2022-10-16T07:47:13;99097.44;;;17.19;100.00
50734;BME280;36701;51.798;19.474;2022-10-16T07:49:40;99103.53;;;17.87;100.00
50734;BME280;36701;51.798;19.474;2022-10-16T07:52:07;99109.66;;;18.17;100.00
50734;BME280;36701;51.798;19.474;2022-10-16T07:54:34;99092.91;;;17.71;100.00
50734;BME280;36701;51.798;19.474;2022-10-16T07:57:00;99112.94;;;17.81;100.00
50734;BME280;36701;51.798;19.474;2022-10-16T07:59:27;99131.44;;;17.78;100.00
50734;BME280;36701;51.798;19.474;2022-10-16T08:01:53;99088.03;;;17.30;100.00
50734;BME280;36701;51.798;19.474;2022-10-16T08:04:19;99115.00;;;17.89;100.00
50734;BME280;36701;51.798;19.474;2022-10-16T08:06:46;99125.91;;;17.84;100.00
50734;BME280;36701;51.798;19.474;2022-10-16T08:09:12;99127.19;;;17.72;100.00
50734;BME280;36701;51.798;19.474;2022-10-16T08:11:39;99112.31;;;17.84;100.00
50734;BME280;36701;51.798;19.474;2022-10-16T08:14:05;99137.16;;;18.34;100.00
50734;BME280;36701;51.798;19.474;2022-10-16T08:16:31;99104.81;;;17.56;100.00
50734;BME280;36701;51.798;19.474;2022-10-16T08:18:58;99134.00;;;17.94;100.00
50734;BME280;36701;51.798;19.474;2022-10-16T08:21:24;99135.13;;;17.69;100.00
50734;BME280;36701;51.798;19.474;2022-10-16T08:23:53;99138.41;;;17.90;100.00
50734;BME280;36701;51.798;19.474;2022-10-16T08:26:20;99149.25;;;18.28;100.00
50734;BME280;36701;51.798;19.474;2022-10-16T08:28:49;99159.66;;;18.26;100.00
50734;BME280;36701;51.798;19.474;2022-10-16T08:31:17;99147.37;;;17.71;100.00
50734;BME280;36701;51.798;19.474;2022-10-16T08:33:44;99161.72;;;18.15;100.00
50734;BME280;36701;51.798;19.474;2022-10-16T08:36:13;99151.78;;;18.05;100.00
50734;BME280;36701;51.798;19.474;2022-10-16T08:38:40;99160.41;;;18.45;100.00
50734;BME280;36701;51.798;19.474;2022-10-16T08:43:48;99165.25;;;18.48;100.00
50734;BME280;36701;51.798;19.474;2022-10-16T08:49:03;99169.56;;;18.82;100.00
50734;BME280;36701;51.798;19.474;2022-10-16T08:51:32;99161.09;;;18.70;100.00
50734;BME280;36701;51.798;19.474;2022-10-16T08:54:03;99129.91;;;18.43;100.00
50734;BME280;36701;51.798;19.474;2022-10-16T08:56:31;99095.75;;;17.80;100.00
50734;BME280;36701;51.798;19.474;2022-10-16T08:58:58;99175.53;;;18.38;100.00
50734;BME280;36701;51.798;19.474;2022-10-16T09:01:35;99133.47;;;17.92;100.00
50734;BME280;36701;51.798;19.474;2022-10-16T09:05:09;99162.41;;;17.88;100.00
50734;BME280;36701;51.798;19.474;2022-10-16T09:07:43;99130.28;;;17.85;100.00
50734;BME280;36701;51.798;19.474;2022-10-16T09:10:28;99156.81;;;18.31;100.00
50734;BME280;36701;51.798;19.474;2022-10-16T09:18:26;99117.00;;;18.49;100.00
50734;BME280;36701;51.798;19.474;2022-10-16T09:23:36;99133.09;;;18.64;100.00
50734;BME280;36701;51.798;19.474;2022-10-16T09:26:04;99158.12;;;19.13;100.00
50734;BME280;36701;51.798;19.474;2022-10-16T09:28:38;99162.34;;;18.59;100.00
50734;BME280;36701;51.798;19.474;2022-10-16T09:31:05;99151.84;;;19.27;100.00
50734;BME280;36701;51.798;19.474;2022-10-16T09:33:36;99155.66;;;19.26;100.00
50734;BME280;36701;51.798;19.474;2022-10-16T09:36:05;99121.41;;;18.92;100.00
50734;BME280;36701;51.798;19.474;2022-10-16T09:38:35;99164.38;;;19.14;100.00
50734;BME280;36701;51.798;19.474;2022-10-16T09:41:22;99126.38;;;19.17;100.00
50734;BME280;36701;51.798;19.474;2022-10-16T09:43:54;99160.88;;;19.64;100.00
50734;BME280;36701;51.798;19.474;2022-10-16T09:46:33;99140.69;;;18.81;100.00
50734;BME280;36701;51.798;19.474;2022-10-16T09:49:04;99121.31;;;19.24;100.00
50734;BME280;36701;51.798;19.474;2022-10-16T09:51:33;99139.19;;;19.03;100.00
50734;BME280;36701;51.798;19.474;2022-10-16T09:54:17;99131.63;;;19.28;100.00
50734;BME280;36701;51.798;19.474;2022-10-16T09:56:44;99171.63;;;19.46;100.00
50734;BME280;36701;51.798;19.474;2022-10-16T09:59:19;99173.38;;;19.92;100.00
50734;BME280;36701;51.798;19.474;2022-10-16T10:01:55;99137.28;;;19.45;100.00
50734;BME280;36701;51.798;19.474;2022-10-16T10:04:23;99174.59;;;20.00;100.00
50734;BME280;36701;51.798;19.474;2022-10-16T10:06:55;99177.28;;;20.14;100.00
50734;BME280;36701;51.798;19.474;2022-10-16T10:09:24;99174.94;;;20.66;100.00
50734;BME280;36701;51.798;19.474;2022-10-16T10:14:23;99176.06;;;19.70;100.00
50734;BME280;36701;51.798;19.474;2022-10-16T10:17:01;99153.84;;;19.35;100.00
50734;BME280;36701;51.798;19.474;2022-10-16T10:19:27;99145.28;;;19.14;100.00
50734;BME280;36701;51.798;19.474;2022-10-16T10:21:54;99150.00;;;19.08;100.00
50734;BME280;36701;51.798;19.474;2022-10-16T10:24:20;99145.13;;;18.77;100.00
50734;BME280;36701;51.798;19.474;2022-10-16T10:27:08;99138.91;;;19.18;100.00
50734;BME280;36701;51.798;19.474;2022-10-16T10:29:49;99143.38;;;19.00;100.00
50734;BME280;36701;51.798;19.474;2022-10-16T10:32:26;99170.66;;;19.92;100.00
50734;BME280;36701;51.798;19.474;2022-10-16T10:35:16;99183.38;;;19.05;100.00
50734;BME280;36701;51.798;19.474;2022-10-16T10:41:14;99148.91;;;19.87;100.00
50734;BME280;36701;51.798;19.474;2022-10-16T10:46:39;99178.03;;;20.28;100.00
50734;BME280;36701;51.798;19.474;2022-10-16T10:52:02;99181.75;;;19.59;100.00
50734;BME280;36701;51.798;19.474;2022-10-16T10:57:19;99142.94;;;20.22;100.00
50734;BME280;36701;51.798;19.474;2022-10-16T11:00:22;99126.06;;;19.83;100.00
50734;BME280;36701;51.798;19.474;2022-10-16T11:05:46;99173.78;;;20.45;100.00
50734;BME280;36701;51.798;19.474;2022-10-16T11:08:29;99139.34;;;19.76;100.00
50734;BME280;36701;51.798;19.474;2022-10-16T11:11:04;99174.41;;;20.87;100.00
50734;BME280;36701;51.798;19.474;2022-10-16T11:13:39;99160.47;;;20.29;100.00
50734;BME280;36701;51.798;19.474;2022-10-16T11:16:17;99102.06;;;20.48;100.00
50734;BME280;36701;51.798;19.474;2022-10-16T11:18:51;99130.25;;;20.80;100.00
50734;BME280;36701;51.798;19.474;2022-10-16T11:21:21;99132.34;;;20.29;100.00
50734;BME280;36701;51.798;19.474;2022-10-16T11:24:06;99164.59;;;21.44;100.00
50734;BME280;36701;51.798;19.474;2022-10-16T11:26:41;99183.66;;;21.49;100.00
50734;BME280;36701;51.798;19.474;2022-10-16T11:29:15;99161.97;;;21.21;100.00
50734;BME280;36701;51.798;19.474;2022-10-16T11:31:51;99120.06;;;21.12;100.00
50734;BME280;36701;51.798;19.474;2022-10-16T11:34:28;99171.13;;;21.65;100.00
50734;BME280;36701;51.798;19.474;2022-10-16T11:37:01;99139.37;;;21.82;100.00
50734;BME280;36701;51.798;19.474;2022-10-16T11:39:30;99162.13;;;22.43;100.00
50734;BME280;36701;51.798;19.474;2022-10-16T11:42:08;99128.47;;;22.64;100.00
50734;BME280;36701;51.798;19.474;2022-10-16T11:47:35;99157.25;;;22.58;100.00
50734;BME280;36701;51.798;19.474;2022-10-16T11:55:42;99179.72;;;21.32;100.00
50734;BME280;36701;51.798;19.474;2022-10-16T12:04:26;99190.16;;;21.70;100.00
50734;BME280;36701;51.798;19.474;2022-10-16T12:07:21;99183.09;;;20.89;100.00
50734;BME280;36701;51.798;19.474;2022-10-16T12:09:50;99150.31;;;20.44;100.00
50734;BME280;36701;51.798;19.474;2022-10-16T12:12:37;99105.25;;;20.41;100.00
50734;BME280;36701;51.798;19.474;2022-10-16T12:17:50;99191.66;;;20.65;100.00
50734;BME280;36701;51.798;19.474;2022-10-16T12:25:32;99189.97;;;20.55;100.00
50734;BME280;36701;51.798;19.474;2022-10-16T12:28:19;99183.22;;;20.61;100.00
50734;BME280;36701;51.798;19.474;2022-10-16T12:30:54;99189.91;;;21.00;100.00
50734;BME280;36701;51.798;19.474;2022-10-16T12:33:30;99194.53;;;21.31;100.00
50734;BME280;36701;51.798;19.474;2022-10-16T12:35:59;99168.56;;;20.80;100.00
50734;BME280;36701;51.798;19.474;2022-10-16T12:38:45;99154.50;;;20.50;100.00
50734;BME280;36701;51.798;19.474;2022-10-16T12:41:27;99176.69;;;21.02;100.00
50734;BME280;36701;51.798;19.474;2022-10-16T12:43:55;99173.50;;;21.49;100.00
50734;BME280;36701;51.798;19.474;2022-10-16T12:46:26;99178.44;;;21.38;100.00
50734;BME280;36701;51.798;19.474;2022-10-16T12:51:38;99181.56;;;21.54;100.00
50734;BME280;36701;51.798;19.474;2022-10-16T13:02:39;99189.41;;;21.38;100.00
50734;BME280;36701;51.798;19.474;2022-10-16T13:05:41;99189.44;;;21.07;100.00
50734;BME280;36701;51.798;19.474;2022-10-16T13:19:34;99188.88;;;21.28;100.00
50734;BME280;36701;51.798;19.474;2022-10-16T13:23:03;99196.16;;;21.41;100.00
50734;BME280;36701;51.798;19.474;2022-10-16T13:25:24;99115.31;;;20.32;100.00
50734;BME280;36701;51.798;19.474;2022-10-16T13:27:59;99200.16;;;20.95;100.00
50734;BME280;36701;51.798;19.474;2022-10-16T13:30:28;99203.09;;;20.67;100.00
50734;BME280;36701;51.798;19.474;2022-10-16T13:33:04;99220.56;;;21.51;100.00
50734;BME280;36701;51.798;19.474;2022-10-16T13:35:34;99190.66;;;21.32;100.00
50734;BME280;36701;51.798;19.474;2022-10-16T13:38:14;99172.69;;;21.49;100.00
50734;BME280;36701;51.798;19.474;2022-10-16T13:40:58;99215.97;;;21.38;100.00
50734;BME280;36701;51.798;19.474;2022-10-16T13:43:32;99203.66;;;21.58;100.00
50734;BME280;36701;51.798;19.474;2022-10-16T13:46:02;99221.19;;;21.17;100.00
50734;BME280;36701;51.798;19.474;2022-10-16T13:48:30;99202.38;;;20.39;100.00
50734;BME280;36701;51.798;19.474;2022-10-16T13:51:02;99227.25;;;20.74;100.00
50734;BME280;36701;51.798;19.474;2022-10-16T13:53:31;99213.69;;;20.91;100.00
50734;BME280;36701;51.798;19.474;2022-10-16T13:55:58;99227.03;;;20.93;100.00
50734;BME280;36701;51.798;19.474;2022-10-16T13:58:26;99221.28;;;21.34;100.00
50734;BME280;36701;51.798;19.474;2022-10-16T14:00:55;99230.06;;;21.54;100.00
50734;BME280;36701;51.798;19.474;2022-10-16T14:03:22;99237.06;;;21.29;100.00
50734;BME280;36701;51.798;19.474;2022-10-16T14:08:15;99194.03;;;20.89;100.00
50734;BME280;36701;51.798;19.474;2022-10-16T14:10:41;99204.28;;;20.83;100.00
50734;BME280;36701;51.798;19.474;2022-10-16T14:13:18;99172.53;;;20.51;100.00
50734;BME280;36701;51.798;19.474;2022-10-16T14:15:50;99203.19;;;20.84;100.00
50734;BME280;36701;51.798;19.474;2022-10-16T14:18:21;99129.06;;;19.95;100.00
50734;BME280;36701;51.798;19.474;2022-10-16T14:20:49;99259.72;;;21.20;100.00
50734;BME280;36701;51.798;19.474;2022-10-16T14:25:48;99258.81;;;21.34;100.00
50734;BME280;36701;51.798;19.474;2022-10-16T14:30:58;99263.31;;;20.98;100.00
50734;BME280;36701;51.798;19.474;2022-10-16T14:38:38;99268.13;;;21.64;100.00
50734;BME280;36701;51.798;19.474;2022-10-16T14:41:05;99236.91;;;20.71;100.00
50734;BME280;36701;51.798;19.474;2022-10-16T14:43:34;99266.16;;;20.93;100.00
50734;BME280;36701;51.798;19.474;2022-10-16T14:46:12;99247.63;;;20.45;100.00
50734;BME280;36701;51.798;19.474;2022-10-16T14:48:45;99275.13;;;20.85;100.00